Terminal Aerodrome Forecast
Issued by NWS Upton, NY

Home | Current Version | Previous Version | Text Only | Print | Product List | Glossary On
Versions: 1 2 3 4 5 6 7 8 9 10 11 12 13 14 15 16 17 18 19 20 21 22 23 24
000
FTUS41 KOKX 131700
TAFBDR
TAF
KBDR 131724Z 1318/1418 20015KT P6SM BKN070
     FM132000 19016G23KT P6SM BKN060 BKN100
     FM140500 19012KT 3SM BR SCT007 BKN040 BKN080
     FM141500 21007KT P6SM SCT025 BKN040=

USA.gov is the U.S. government's official web portal to all federal, state and local government web resources and services.